createdAt,value
2023-05-22T00:02:00.304Z,42.16
2023-05-22T00:05:02.848Z,42.62
2023-05-22T00:08:06.395Z,42.64
2023-05-22T00:11:08.229Z,42.81
2023-05-22T00:14:10.122Z,43.27
2023-05-22T00:17:15.140Z,43.44
2023-05-22T00:20:17.208Z,43.54
2023-05-22T00:23:19.039Z,43.55
2023-05-22T00:26:23.333Z,43.82
2023-05-22T00:29:25.097Z,43.83
2023-05-22T00:32:27.378Z,44.34
2023-05-22T00:35:29.478Z,44.35
2023-05-22T00:38:33.336Z,44.53
2023-05-22T00:41:35.627Z,44.35
2023-05-22T00:44:37.624Z,44.61
2023-05-22T00:47:39.699Z,44.86
2023-05-22T00:50:42.320Z,44.98
2023-05-22T00:53:45.102Z,45.09
2023-05-22T00:56:47.744Z,45.29
2023-05-22T00:59:49.870Z,45.13
2023-05-22T01:02:51.965Z,45.30
2023-05-22T01:05:54.987Z,45.36
2023-05-22T01:08:57.833Z,45.39
2023-05-22T01:12:38.554Z,45.44
2023-05-22T01:15:57.461Z,45.72
2023-05-22T01:19:26.196Z,45.96
2023-05-22T01:22:51.187Z,45.94
2023-05-22T01:26:19.103Z,45.97
2023-05-22T01:29:46.301Z,46.21
2023-05-22T01:32:49.833Z,46.41
2023-05-22T01:35:56.048Z,47.20
2023-05-22T01:39:01.760Z,47.75
2023-05-22T01:42:04.417Z,48.01
2023-05-22T01:45:08.999Z,48.54
2023-05-22T01:48:12.466Z,48.89
2023-05-22T01:51:24.002Z,49.05
2023-05-22T01:54:52.843Z,49.44
2023-05-22T01:58:01.071Z,49.85
2023-05-22T02:01:03.929Z,50.12
2023-05-22T02:04:06.651Z,49.80
2023-05-22T02:07:13.962Z,49.49
2023-05-22T02:10:17.177Z,49.35
2023-05-22T02:13:19.288Z,49.10
2023-05-22T02:16:22.313Z,49.33
2023-05-22T02:19:24.799Z,48.96
2023-05-22T02:22:26.768Z,49.04
2023-05-22T02:25:28.529Z,49.22
2023-05-22T02:28:30.620Z,49.25
2023-05-22T02:31:32.430Z,49.46
2023-05-22T02:34:35.090Z,49.38
2023-05-22T02:37:37.222Z,49.35
2023-05-22T02:40:39.365Z,49.39
2023-05-22T02:43:41.759Z,49.40
2023-05-22T02:46:43.742Z,49.15
2023-05-22T02:49:46.071Z,49.52
2023-05-22T02:52:47.890Z,49.74
2023-05-22T02:55:49.634Z,49.78
2023-05-22T02:58:51.414Z,50.05
2023-05-22T03:01:54.547Z,49.67
2023-05-22T03:04:59.649Z,49.70
2023-05-22T03:08:01.595Z,49.64
2023-05-22T03:11:03.551Z,49.94
2023-05-22T03:14:05.337Z,50.22
2023-05-22T03:17:07.122Z,49.67
2023-05-22T03:20:09.670Z,49.85
2023-05-22T03:23:13.064Z,49.91
2023-05-22T03:26:14.902Z,49.84
2023-05-22T03:29:16.859Z,50.14
2023-05-22T03:32:19.260Z,50.20
2023-05-22T03:35:21.631Z,50.41
2023-05-22T03:38:23.412Z,50.81
2023-05-22T03:41:25.646Z,50.72
2023-05-22T03:44:28.040Z,50.69
2023-05-22T03:47:30.269Z,50.30
2023-05-22T03:50:32.090Z,50.23
2023-05-22T03:53:33.980Z,50.26
2023-05-22T03:56:35.898Z,50.77
2023-05-22T03:59:37.915Z,50.70
2023-05-22T04:02:40.074Z,50.37
2023-05-22T04:05:41.919Z,50.33
2023-05-22T04:08:45.218Z,50.25
2023-05-22T04:11:48.824Z,50.01
2023-05-22T04:14:51.106Z,50.20
2023-05-22T04:17:53.606Z,49.62
2023-05-22T04:20:56.193Z,49.42
2023-05-22T04:23:57.958Z,49.44
2023-05-22T04:27:00.454Z,49.55
2023-05-22T04:30:02.843Z,49.31
2023-05-22T04:33:05.680Z,49.70
2023-05-22T04:36:12.386Z,49.55
2023-05-22T04:39:15.234Z,49.41
2023-05-22T04:42:17.555Z,49.66
2023-05-22T04:45:19.586Z,49.27
2023-05-22T04:48:21.388Z,49.39
2023-05-22T04:51:23.279Z,49.27
2023-05-22T04:54:25.353Z,49.32
2023-05-22T04:57:27.392Z,49.09
2023-05-22T05:00:29.282Z,49.20
2023-05-22T05:03:32.125Z,49.02
2023-05-22T05:06:34.834Z,48.85
2023-05-22T05:09:37.546Z,48.63
2023-05-22T05:12:39.500Z,48.02
2023-05-22T05:15:41.388Z,47.58
2023-05-22T05:18:43.454Z,47.35
2023-05-22T05:21:47.141Z,46.76
2023-05-22T05:24:49.221Z,46.26
2023-05-22T05:27:51.727Z,46.07
2023-05-22T05:30:55.697Z,45.17
2023-05-22T05:34:23.617Z,44.70
2023-05-22T05:37:31.069Z,44.20
2023-05-22T05:40:35.198Z,43.41
2023-05-22T05:43:38.079Z,42.19
2023-05-22T05:46:43.102Z,41.86
2023-05-22T05:49:45.448Z,41.37
2023-05-22T05:52:49.224Z,40.56
2023-05-22T05:55:53.582Z,39.78
2023-05-22T05:58:55.669Z,38.56
2023-05-22T06:02:03.410Z,38.52
2023-05-22T06:05:09.278Z,38.59
2023-05-22T06:08:15.591Z,38.19
2023-05-22T06:11:17.516Z,37.08
2023-05-22T06:14:28.414Z,37.01
2023-05-22T06:17:30.336Z,36.62
2023-05-22T06:20:32.905Z,36.46
2023-05-22T06:23:34.908Z,35.99
2023-05-22T06:26:37.064Z,36.14
2023-05-22T06:29:38.889Z,36.09
2023-05-22T06:32:41.790Z,35.44
2023-05-22T06:35:45.019Z,35.38
2023-05-22T06:38:47.187Z,35.16
2023-05-22T06:42:08.864Z,34.22
2023-05-22T06:45:42.530Z,33.89
2023-05-22T06:49:02.915Z,33.26
2023-05-22T06:52:16.661Z,32.78
2023-05-22T06:55:18.747Z,33.01
2023-05-22T06:58:33.254Z,32.90
2023-05-22T07:01:37.769Z,32.44
2023-05-22T07:04:44.661Z,32.19
2023-05-22T07:07:51.636Z,31.95
2023-05-22T07:10:53.528Z,31.13
2023-05-22T07:13:55.500Z,30.98
2023-05-22T07:16:57.986Z,30.98
2023-05-22T07:20:12.146Z,30.14
2023-05-22T07:23:18.717Z,30.29
2023-05-22T07:26:22.559Z,30.10
2023-05-22T07:29:33.942Z,29.36
2023-05-22T07:32:36.551Z,28.81
2023-05-22T07:35:38.966Z,28.22
2023-05-22T07:38:40.866Z,28.25
2023-05-22T07:41:50.255Z,27.59
2023-05-22T07:44:53.343Z,26.93
2023-05-22T07:47:58.991Z,26.33
2023-05-22T07:51:01.100Z,26.46
2023-05-22T07:54:03.363Z,26.70
2023-05-22T07:57:05.242Z,25.97
2023-05-22T08:00:13.733Z,25.81
2023-05-22T08:03:17.419Z,26.09
2023-05-22T08:06:19.861Z,25.94
2023-05-22T08:09:21.771Z,25.68
2023-05-22T08:12:23.744Z,25.64
2023-05-22T08:15:25.538Z,25.14
2023-05-22T08:18:29.231Z,24.63
2023-05-22T08:21:34.654Z,24.82
2023-05-22T08:24:36.697Z,24.19
2023-05-22T08:27:38.637Z,24.23
2023-05-22T08:30:40.702Z,24.10
2023-05-22T08:33:42.778Z,24.21
2023-05-22T08:36:44.573Z,23.74
2023-05-22T08:39:46.402Z,23.81
2023-05-22T08:42:48.689Z,23.27
2023-05-22T08:46:00.326Z,22.54
2023-05-22T08:49:03.569Z,22.48
2023-05-22T08:52:15.415Z,22.70
2023-05-22T08:55:19.589Z,22.60
2023-05-22T08:58:22.428Z,22.32
2023-05-22T09:01:24.849Z,22.84
2023-05-22T09:04:28.590Z,22.55
2023-05-22T09:07:30.558Z,22.55
2023-05-22T09:10:32.364Z,22.59
2023-05-22T09:13:34.170Z,22.49
2023-05-22T09:16:46.179Z,21.94
2023-05-22T09:19:47.960Z,22.31
2023-05-22T09:22:49.796Z,21.75
2023-05-22T09:25:56.118Z,21.93
2023-05-22T09:29:00.501Z,21.87
2023-05-22T09:32:02.487Z,22.21
2023-05-22T09:35:05.224Z,21.95
2023-05-22T09:38:10.190Z,21.85
2023-05-22T09:41:13.372Z,21.68
2023-05-22T09:44:16.172Z,21.21
2023-05-22T09:47:18.060Z,21.30
2023-05-22T09:50:20.016Z,21.53
2023-05-22T09:53:27.997Z,21.43
2023-05-22T09:56:39.302Z,21.77
2023-05-22T09:59:44.160Z,22.28
2023-05-22T10:02:49.242Z,22.21
2023-05-22T10:05:54.318Z,22.73
2023-05-22T10:09:05.190Z,23.26
2023-05-22T10:12:10.364Z,23.18
2023-05-22T10:15:12.996Z,23.14
2023-05-22T10:18:17.109Z,23.60
2023-05-22T10:21:20.110Z,23.04
2023-05-22T10:24:24.027Z,23.11
2023-05-22T10:27:25.794Z,23.44
2023-05-22T10:30:30.800Z,23.62
2023-05-22T10:34:01.153Z,24.00
2023-05-22T10:37:20.013Z,23.97
2023-05-22T10:40:30.542Z,24.10
2023-05-22T10:43:32.877Z,24.11
2023-05-22T10:46:34.865Z,23.98
2023-05-22T10:49:36.976Z,24.14
2023-05-22T10:52:40.186Z,24.29
2023-05-22T10:55:53.312Z,24.68
2023-05-22T10:59:05.036Z,24.33
2023-05-22T11:02:22.463Z,24.95
2023-05-22T11:05:25.894Z,25.58
2023-05-22T11:08:27.671Z,25.53
2023-05-22T11:11:29.680Z,25.07
2023-05-22T11:14:31.578Z,25.11
2023-05-22T11:17:40.034Z,25.11
2023-05-22T11:20:42.498Z,25.12
2023-05-22T11:23:45.609Z,25.13
2023-05-22T11:27:02.579Z,25.17
2023-05-22T11:30:05.138Z,25.22
2023-05-22T11:33:07.260Z,25.08
2023-05-22T11:36:09.875Z,25.01
2023-05-22T11:39:15.060Z,24.89
2023-05-22T11:42:18.676Z,24.79
2023-05-22T11:45:20.645Z,25.12
2023-05-22T11:48:23.773Z,25.73
2023-05-22T11:51:27.105Z,25.37
2023-05-22T11:54:32.548Z,25.01
2023-05-22T11:57:37.756Z,25.45
2023-05-22T12:00:39.765Z,25.52
2023-05-22T12:03:42.183Z,25.50
2023-05-22T12:06:44.605Z,25.40
2023-05-22T12:09:46.450Z,25.50
2023-05-22T12:12:48.386Z,25.66
2023-05-22T12:15:50.261Z,25.58
2023-05-22T12:18:54.929Z,26.05
2023-05-22T12:21:57.350Z,26.16
2023-05-22T12:24:59.174Z,26.12
2023-05-22T12:28:00.980Z,26.01
2023-05-22T12:31:02.765Z,26.31
2023-05-22T12:34:07.336Z,25.95
2023-05-22T12:37:28.423Z,26.24
2023-05-22T12:40:30.818Z,26.11
2023-05-22T12:43:32.915Z,26.21
2023-05-22T12:46:35.019Z,26.37
2023-05-22T12:49:36.828Z,26.16
2023-05-22T12:52:38.642Z,26.60
2023-05-22T12:55:41.356Z,26.24
2023-05-22T12:58:43.870Z,26.15
2023-05-22T13:01:45.768Z,26.37
2023-05-22T13:04:47.962Z,26.17
2023-05-22T13:07:49.895Z,26.11
2023-05-22T13:10:51.727Z,26.47
2023-05-22T13:13:53.725Z,26.28
2023-05-22T13:16:55.700Z,26.12
2023-05-22T13:19:58.290Z,26.27
2023-05-22T13:23:00.239Z,26.11
2023-05-22T13:26:02.836Z,26.23
2023-05-22T13:29:04.996Z,26.07
2023-05-22T13:32:06.887Z,26.26
2023-05-22T13:35:09.287Z,26.36
2023-05-22T13:38:11.105Z,26.28
2023-05-22T13:41:12.939Z,26.88
2023-05-22T13:44:14.883Z,26.76
2023-05-22T13:47:16.692Z,26.71
2023-05-22T13:50:19.352Z,27.09
2023-05-22T13:53:21.179Z,26.75
2023-05-22T13:56:23.509Z,27.00
2023-05-22T13:59:25.800Z,26.72
2023-05-22T14:02:28.160Z,27.03
2023-05-22T14:05:31.038Z,27.07
2023-05-22T14:08:32.869Z,27.01
2023-05-22T14:11:34.597Z,26.82
2023-05-22T14:14:36.700Z,26.73
2023-05-22T14:17:38.571Z,26.80
2023-05-22T14:20:41.530Z,27.08
2023-05-22T14:23:43.377Z,26.99
2023-05-22T14:26:45.513Z,27.13
2023-05-22T14:29:47.958Z,27.23
2023-05-22T14:32:49.982Z,27.10
2023-05-22T14:35:52.624Z,26.40
2023-05-22T14:38:57.021Z,26.98
2023-05-22T14:41:58.851Z,27.35
2023-05-22T14:45:00.948Z,27.67
2023-05-22T14:48:02.750Z,27.15
2023-05-22T14:51:04.556Z,27.23
2023-05-22T14:54:06.979Z,27.95
2023-05-22T14:57:08.905Z,27.81
2023-05-22T15:00:12.293Z,27.76
2023-05-22T15:03:14.380Z,27.64
2023-05-22T15:06:17.178Z,27.93
2023-05-22T15:09:18.990Z,28.36
2023-05-22T15:12:22.563Z,28.66
2023-05-22T15:15:24.658Z,28.28
2023-05-22T15:18:27.358Z,28.74
2023-05-22T15:21:29.469Z,28.87
2023-05-22T15:24:31.369Z,29.31
2023-05-22T15:27:37.197Z,29.31
2023-05-22T15:30:41.955Z,29.82
2023-05-22T15:33:43.944Z,29.99
2023-05-22T15:36:45.730Z,29.46
2023-05-22T15:39:47.495Z,29.48
2023-05-22T15:42:50.550Z,29.75
2023-05-22T15:45:52.443Z,29.83
2023-05-22T15:48:54.423Z,29.96
2023-05-22T15:51:56.188Z,30.37
2023-05-22T15:54:58.901Z,30.75
2023-05-22T15:58:02.805Z,30.36
2023-05-22T16:01:04.802Z,30.74
2023-05-22T16:04:06.574Z,30.50
2023-05-22T16:07:08.347Z,30.30
2023-05-22T16:10:10.925Z,30.51
2023-05-22T16:13:13.467Z,30.52
2023-05-22T16:16:16.475Z,30.52
2023-05-22T16:19:18.505Z,30.96
2023-05-22T16:22:21.317Z,30.50
2023-05-22T16:25:23.278Z,31.18
2023-05-22T16:28:25.037Z,31.47
2023-05-22T16:31:26.956Z,31.51
2023-05-22T16:34:29.837Z,31.81
2023-05-22T16:37:32.853Z,32.08
2023-05-22T16:40:34.603Z,32.57
2023-05-22T16:43:38.235Z,33.29
2023-05-22T16:46:40.117Z,33.22
2023-05-22T16:49:42.387Z,33.63
2023-05-22T16:52:44.201Z,33.94
2023-05-22T16:55:46.357Z,34.18
2023-05-22T16:58:48.311Z,34.69
2023-05-22T17:01:51.902Z,34.46
2023-05-22T17:04:54.543Z,34.80
2023-05-22T17:07:56.305Z,35.12
2023-05-22T17:10:58.128Z,34.98
2023-05-22T17:13:59.868Z,35.13
2023-05-22T17:17:01.896Z,35.61
2023-05-22T17:20:09.025Z,36.69
2023-05-22T17:23:10.922Z,37.35
2023-05-22T17:26:15.597Z,37.46
2023-05-22T17:29:17.915Z,37.99
2023-05-22T17:32:20.222Z,38.64
2023-05-22T17:35:22.160Z,38.63
2023-05-22T17:38:23.920Z,38.82
2023-05-22T17:41:26.559Z,38.25
2023-05-22T17:44:28.540Z,38.46
2023-05-22T17:47:30.368Z,37.48
2023-05-22T17:50:32.181Z,36.58
2023-05-22T17:53:34.841Z,35.59
2023-05-22T17:56:37.616Z,34.74
2023-05-22T17:59:40.648Z,33.97
2023-05-22T18:02:42.971Z,32.93
2023-05-22T18:05:45.049Z,33.01
2023-05-22T18:08:47.739Z,32.82
2023-05-22T18:11:53.871Z,32.64
2023-05-22T18:14:55.725Z,32.79
2023-05-22T18:17:57.597Z,32.62
2023-05-22T18:20:59.483Z,32.75
2023-05-22T18:24:01.319Z,32.77
2023-05-22T18:27:03.963Z,33.11
2023-05-22T18:30:06.794Z,33.32
2023-05-22T18:33:08.617Z,33.68
2023-05-22T18:36:11.147Z,34.34
2023-05-22T18:39:13.021Z,34.41
2023-05-22T18:42:15.225Z,35.03
2023-05-22T18:45:17.035Z,35.25
2023-05-22T18:48:19.499Z,35.55
2023-05-22T18:51:21.433Z,35.63
2023-05-22T18:54:23.565Z,35.67
2023-05-22T18:57:25.501Z,35.78
2023-05-22T19:00:27.254Z,36.07
2023-05-22T19:03:29.025Z,35.95
2023-05-22T19:06:30.877Z,36.84
2023-05-22T19:09:32.766Z,36.82
2023-05-22T19:12:34.604Z,36.88
2023-05-22T19:15:37.693Z,37.13
2023-05-22T19:18:39.744Z,37.24
2023-05-22T19:21:41.490Z,37.43
2023-05-22T19:24:43.428Z,37.69
2023-05-22T19:27:45.276Z,37.82
2023-05-22T19:30:47.257Z,37.94
2023-05-22T19:33:49.029Z,38.00
2023-05-22T19:36:52.251Z,38.04
2023-05-22T19:39:54.290Z,38.25
2023-05-22T19:42:56.079Z,38.05
2023-05-22T19:45:58.444Z,38.13
2023-05-22T19:49:00.341Z,38.31
2023-05-22T19:52:02.657Z,38.90
2023-05-22T19:55:05.232Z,38.45
2023-05-22T19:58:07.105Z,38.50
2023-05-22T20:01:09.006Z,38.31
2023-05-22T20:04:11.357Z,38.24
2023-05-22T20:07:13.950Z,38.45
2023-05-22T20:10:16.182Z,38.66
2023-05-22T20:13:17.953Z,38.49
2023-05-22T20:16:20.258Z,38.81
2023-05-22T20:19:24.322Z,38.88
2023-05-22T20:22:27.380Z,39.04
2023-05-22T20:25:29.175Z,39.33
2023-05-22T20:28:30.987Z,39.36
2023-05-22T20:31:32.742Z,39.45
2023-05-22T20:34:35.511Z,39.76
2023-05-22T20:37:38.465Z,39.68
2023-05-22T20:40:46.519Z,39.80
2023-05-22T20:43:48.921Z,39.67
2023-05-22T20:46:53.277Z,39.85
2023-05-22T20:49:55.090Z,40.27
2023-05-22T20:52:57.099Z,40.08
2023-05-22T20:55:59.048Z,40.32
2023-05-22T20:59:00.813Z,40.51
2023-05-22T21:02:04.742Z,40.60
2023-05-22T21:05:06.825Z,40.43
2023-05-22T21:08:08.742Z,40.93
2023-05-22T21:11:10.596Z,40.99
2023-05-22T21:14:12.470Z,40.68
2023-05-22T21:17:14.256Z,41.16
2023-05-22T21:20:16.218Z,41.15
2023-05-22T21:23:17.996Z,41.16
2023-05-22T21:26:22.385Z,41.36
2023-05-22T21:29:24.524Z,41.47
2023-05-22T21:32:26.304Z,41.55
2023-05-22T21:35:28.206Z,41.90
2023-05-22T21:38:29.987Z,42.05
2023-05-22T21:41:31.816Z,42.21
2023-05-22T21:44:33.611Z,42.31
2023-05-22T21:47:35.671Z,42.29
2023-05-22T21:50:37.560Z,42.39
2023-05-22T21:53:42.708Z,42.44
2023-05-22T21:56:44.513Z,42.25
2023-05-22T21:59:50.873Z,42.42
2023-05-22T22:02:52.856Z,42.27
2023-05-22T22:05:54.725Z,42.48
2023-05-22T22:08:58.819Z,43.08
2023-05-22T22:12:02.574Z,43.04
2023-05-22T22:15:04.725Z,43.25
2023-05-22T22:18:06.570Z,43.62
2023-05-22T22:21:08.449Z,43.60
2023-05-22T22:24:10.184Z,43.92
2023-05-22T22:27:12.159Z,44.03
2023-05-22T22:30:13.939Z,44.15
2023-05-22T22:33:15.798Z,44.49
2023-05-22T22:36:19.100Z,44.66
2023-05-22T22:39:20.866Z,44.36
2023-05-22T22:42:22.593Z,44.49
2023-05-22T22:45:24.364Z,44.65
2023-05-22T22:48:26.129Z,44.86
2023-05-22T22:51:30.933Z,45.04
2023-05-22T22:54:32.713Z,44.92
2023-05-22T22:57:34.581Z,45.14
2023-05-22T23:00:39.297Z,45.20
2023-05-22T23:03:41.102Z,45.39
2023-05-22T23:06:42.926Z,45.36
2023-05-22T23:09:44.779Z,45.72
2023-05-22T23:12:48.378Z,45.75
2023-05-22T23:15:50.314Z,46.11
2023-05-22T23:18:52.195Z,46.14
2023-05-22T23:21:54.000Z,46.31
2023-05-22T23:24:55.753Z,46.68
2023-05-22T23:27:57.582Z,46.97
2023-05-22T23:30:59.791Z,47.38
2023-05-22T23:34:01.708Z,47.60
2023-05-22T23:37:03.509Z,47.50
2023-05-22T23:40:06.780Z,48.22
2023-05-22T23:43:08.526Z,48.15
2023-05-22T23:46:13.275Z,48.32
2023-05-22T23:49:15.164Z,48.02
2023-05-22T23:52:17.026Z,48.30
2023-05-22T23:55:19.089Z,48.50
2023-05-22T23:58:20.993Z,48.04
